createdAt,value
2022-10-12T00:00:16.693Z,5.21
2022-10-12T00:04:18.194Z,5.15
2022-10-12T00:08:19.703Z,5.10
2022-10-12T00:12:21.198Z,5.06
2022-10-12T00:16:24.369Z,5.08
2022-10-12T00:20:25.788Z,5.08
2022-10-12T00:24:27.179Z,5.03
2022-10-12T00:28:28.749Z,4.95
2022-10-12T00:32:30.140Z,4.69
2022-10-12T00:36:35.598Z,4.72
2022-10-12T00:40:36.954Z,4.70
2022-10-12T00:44:47.374Z,4.84
2022-10-12T00:48:54.988Z,4.78
2022-10-12T00:53:00.753Z,4.75
2022-10-12T00:57:04.672Z,4.57
2022-10-12T01:01:06.926Z,4.58
2022-10-12T01:05:10.279Z,4.54
2022-10-12T01:09:11.714Z,4.64
2022-10-12T01:13:13.539Z,4.50
2022-10-12T01:17:14.880Z,4.51
2022-10-12T01:21:23.431Z,4.46
2022-10-12T01:26:02.313Z,4.37
2022-10-12T01:30:25.482Z,4.33
2022-10-12T01:34:44.346Z,4.32
2022-10-12T01:38:53.525Z,4.27
2022-10-12T01:42:56.650Z,3.90
2022-10-12T01:46:58.429Z,4.05
2022-10-12T01:51:03.725Z,4.21
2022-10-12T01:55:16.910Z,4.21
2022-10-12T01:59:46.437Z,4.19
2022-10-12T02:04:23.045Z,4.18
2022-10-12T02:08:33.440Z,4.07
2022-10-12T02:12:35.635Z,4.03
2022-10-12T02:16:45.880Z,3.94
2022-10-12T02:20:51.336Z,3.97
2022-10-12T02:24:56.866Z,3.76
2022-10-12T02:29:01.547Z,3.84
2022-10-12T02:33:11.062Z,3.88
2022-10-12T02:37:27.161Z,3.43
2022-10-12T02:41:34.387Z,3.66
2022-10-12T02:45:37.060Z,3.69
2022-10-12T02:49:40.511Z,3.66
2022-10-12T02:53:41.981Z,3.71
2022-10-12T02:57:43.484Z,3.76
2022-10-12T03:01:44.931Z,3.76
2022-10-12T03:05:46.690Z,3.77
2022-10-12T03:09:48.071Z,3.76
2022-10-12T03:13:55.861Z,3.75
2022-10-12T03:17:57.221Z,3.62
2022-10-12T03:21:58.582Z,3.47
2022-10-12T03:25:59.963Z,3.52
2022-10-12T03:30:01.496Z,3.24
2022-10-12T03:34:03.877Z,3.33
2022-10-12T03:38:05.293Z,3.32
2022-10-12T03:42:06.674Z,3.39
2022-10-12T03:46:08.055Z,3.26
2022-10-12T03:50:09.751Z,3.29
2022-10-12T03:54:11.203Z,3.38
2022-10-12T03:58:13.535Z,3.46
2022-10-12T04:02:17.164Z,3.48
2022-10-12T04:06:18.812Z,3.09
2022-10-12T04:10:20.242Z,3.02
2022-10-12T04:14:21.608Z,3.26
2022-10-12T04:18:23.006Z,3.33
2022-10-12T04:22:24.818Z,3.17
2022-10-12T04:26:26.233Z,3.13
2022-10-12T04:30:27.735Z,3.14
2022-10-12T04:34:29.246Z,3.29
2022-10-12T04:38:30.685Z,3.22
2022-10-12T04:42:32.032Z,3.21
2022-10-12T04:46:34.164Z,3.10
2022-10-12T04:50:35.737Z,3.14
2022-10-12T04:54:37.184Z,3.11
2022-10-12T04:58:38.557Z,3.12
2022-10-12T05:02:40.401Z,3.12
2022-10-12T05:06:41.799Z,2.95
2022-10-12T05:10:43.470Z,3.00
2022-10-12T05:14:44.853Z,2.95
2022-10-12T05:18:46.300Z,2.56
2022-10-12T05:22:47.658Z,2.87
2022-10-12T05:26:49.071Z,2.75
2022-10-12T05:30:51.675Z,2.88
2022-10-12T05:34:53.118Z,2.98
2022-10-12T05:38:54.646Z,2.82
2022-10-12T05:42:56.024Z,2.60
2022-10-12T05:46:57.442Z,2.86
2022-10-12T05:50:58.836Z,2.98
2022-10-12T05:55:00.255Z,2.93
2022-10-12T05:59:01.696Z,2.79
2022-10-12T06:03:07.465Z,2.91
2022-10-12T06:07:09.336Z,3.21
2022-10-12T06:11:11.102Z,3.28
2022-10-12T06:15:12.802Z,3.47
2022-10-12T06:19:14.540Z,3.67
2022-10-12T06:23:16.155Z,3.85
2022-10-12T06:27:19.828Z,3.95
2022-10-12T06:31:21.793Z,4.15
2022-10-12T06:35:23.173Z,4.26
2022-10-12T06:39:25.658Z,4.40
2022-10-12T06:43:28.242Z,4.57
2022-10-12T06:47:30.021Z,4.65
2022-10-12T06:51:31.781Z,4.84
2022-10-12T06:55:33.267Z,5.09
2022-10-12T06:59:34.653Z,5.15
2022-10-12T07:03:36.275Z,5.31
2022-10-12T07:07:38.374Z,5.65
2022-10-12T07:11:39.796Z,5.85
2022-10-12T07:15:48.701Z,6.05
2022-10-12T07:19:50.110Z,6.19
2022-10-12T07:23:52.781Z,6.42
2022-10-12T07:27:54.222Z,6.52
2022-10-12T07:31:55.581Z,7.06
2022-10-12T07:36:13.297Z,7.56
2022-10-12T07:40:16.048Z,7.95
2022-10-12T07:44:19.170Z,8.25
2022-10-12T07:48:21.062Z,8.56
2022-10-12T07:52:22.524Z,8.87
2022-10-12T07:56:23.896Z,9.48
2022-10-12T08:00:25.682Z,10.00
2022-10-12T08:04:27.239Z,10.10
2022-10-12T08:08:28.592Z,10.16
2022-10-12T08:12:29.995Z,10.21
2022-10-12T08:16:31.442Z,10.45
2022-10-12T08:20:32.910Z,10.76
2022-10-12T08:24:35.684Z,10.98
2022-10-12T08:28:37.479Z,10.82
2022-10-12T08:32:38.932Z,11.34
2022-10-12T08:36:40.301Z,11.59
2022-10-12T08:40:53.876Z,11.76
2022-10-12T08:45:14.007Z,12.19
2022-10-12T08:49:20.116Z,12.28
2022-10-12T08:53:57.011Z,11.98
2022-10-12T08:57:58.647Z,12.81
2022-10-12T09:02:27.819Z,12.39
2022-10-12T09:06:35.006Z,12.44
2022-10-12T09:11:03.066Z,12.90
2022-10-12T09:15:13.049Z,13.02
2022-10-12T09:19:19.834Z,12.89
2022-10-12T09:23:33.462Z,13.33
2022-10-12T09:27:45.102Z,13.41
2022-10-12T09:32:31.436Z,13.67
2022-10-12T09:36:41.110Z,13.85
2022-10-12T09:40:42.778Z,14.00
2022-10-12T09:44:47.874Z,14.29
2022-10-12T09:49:07.410Z,14.64
2022-10-12T09:53:27.228Z,14.82
2022-10-12T09:57:36.028Z,15.28
2022-10-12T10:01:38.640Z,14.32
2022-10-12T10:05:40.293Z,15.45
2022-10-12T10:09:41.696Z,16.21
2022-10-12T10:13:50.158Z,15.71
2022-10-12T10:17:54.722Z,15.60
2022-10-12T10:21:56.572Z,16.33
2022-10-12T10:26:04.923Z,16.31
2022-10-12T10:30:28.801Z,16.00
2022-10-12T10:34:31.823Z,16.35
2022-10-12T10:38:52.403Z,16.51
2022-10-12T10:43:01.776Z,17.04
2022-10-12T10:47:07.952Z,17.37
2022-10-12T10:51:09.845Z,17.51
2022-10-12T10:55:11.295Z,17.76
2022-10-12T11:00:02.267Z,17.13
2022-10-12T11:04:16.702Z,16.33
2022-10-12T11:08:30.833Z,17.25
2022-10-12T11:12:42.155Z,17.18
2022-10-12T11:16:52.370Z,17.65
2022-10-12T11:21:01.334Z,18.09
2022-10-12T11:25:50.316Z,18.34
2022-10-12T11:30:08.733Z,17.04
2022-10-12T11:34:18.478Z,16.24
2022-10-12T11:38:19.860Z,17.32
2022-10-12T11:42:31.079Z,18.06
2022-10-12T11:46:37.152Z,18.53
2022-10-12T11:50:45.140Z,18.74
2022-10-12T11:55:20.939Z,17.75
2022-10-12T11:59:28.448Z,17.50
2022-10-12T12:04:36.416Z,17.67
2022-10-12T12:08:39.396Z,18.02
2022-10-12T12:13:13.052Z,15.96
2022-10-12T12:17:20.563Z,17.56
2022-10-12T12:21:22.089Z,17.47
2022-10-12T12:25:30.998Z,17.68
2022-10-12T12:29:32.797Z,17.18
2022-10-12T12:33:39.826Z,18.30
2022-10-12T12:37:41.521Z,18.74
2022-10-12T12:42:06.797Z,18.27
2022-10-12T12:46:11.812Z,18.60
2022-10-12T12:50:35.495Z,18.62
2022-10-12T12:54:52.294Z,18.24
2022-10-12T12:59:41.450Z,18.65
2022-10-12T13:04:00.979Z,19.06
2022-10-12T13:08:14.682Z,18.95
2022-10-12T13:12:28.663Z,19.52
2022-10-12T13:21:18.496Z,19.55
2022-10-12T13:25:47.802Z,19.70
2022-10-12T13:29:55.214Z,19.16
2022-10-12T13:34:10.340Z,18.27
2022-10-12T13:38:14.449Z,18.31
2022-10-12T13:42:22.396Z,18.29
2022-10-12T13:46:44.450Z,18.51
2022-10-12T13:50:57.791Z,19.39
2022-10-12T13:55:00.130Z,19.07
2022-10-12T13:59:06.730Z,19.29
2022-10-12T14:03:12.321Z,19.36
2022-10-12T14:07:24.012Z,18.53
2022-10-12T14:11:27.487Z,19.05
2022-10-12T14:15:33.807Z,19.60
2022-10-12T14:19:41.043Z,20.45
2022-10-12T14:23:48.987Z,19.26
2022-10-12T14:28:02.163Z,18.81
2022-10-12T14:32:06.762Z,19.59
2022-10-12T14:36:15.584Z,19.39
2022-10-12T14:40:29.079Z,18.35
2022-10-12T14:44:42.638Z,18.22
2022-10-12T14:48:44.122Z,19.46
2022-10-12T14:52:49.448Z,18.09
2022-10-12T14:56:50.896Z,19.07
2022-10-12T15:00:52.427Z,18.07
2022-10-12T15:04:54.567Z,18.57
2022-10-12T15:08:56.022Z,17.80
2022-10-12T15:12:57.415Z,17.26
2022-10-12T15:17:00.944Z,16.59
2022-10-12T15:21:03.581Z,16.44
2022-10-12T15:25:39.727Z,15.93
2022-10-12T15:29:43.776Z,16.02
2022-10-12T15:33:45.579Z,15.44
2022-10-12T15:37:48.039Z,15.63
2022-10-12T15:41:49.515Z,15.33
2022-10-12T15:45:51.325Z,14.80
2022-10-12T15:49:52.732Z,14.39
2022-10-12T15:53:54.877Z,14.38
2022-10-12T15:57:57.425Z,14.32
2022-10-12T16:01:58.840Z,13.97
2022-10-12T16:06:00.216Z,13.96
2022-10-12T16:10:01.737Z,13.45
2022-10-12T16:14:03.319Z,13.29
2022-10-12T16:18:05.429Z,12.95
2022-10-12T16:22:09.896Z,12.91
2022-10-12T16:26:14.531Z,12.80
2022-10-12T16:30:16.012Z,12.52
2022-10-12T16:34:17.410Z,12.41
2022-10-12T16:38:22.242Z,12.46
2022-10-12T16:42:24.851Z,11.50
2022-10-12T16:46:26.282Z,11.50
2022-10-12T16:50:27.760Z,11.82
2022-10-12T16:54:29.217Z,11.65
2022-10-12T16:58:30.965Z,11.59
2022-10-12T17:02:32.368Z,11.24
2022-10-12T17:06:33.860Z,11.32
2022-10-12T17:10:40.747Z,11.09
2022-10-12T17:14:42.279Z,11.26
2022-10-12T17:18:43.666Z,11.16
2022-10-12T17:22:45.126Z,11.30
2022-10-12T17:26:47.546Z,11.00
2022-10-12T17:30:49.157Z,11.07
2022-10-12T17:34:50.591Z,10.73
2022-10-12T17:38:53.485Z,10.64
2022-10-12T17:42:54.951Z,10.43
2022-10-12T17:46:57.442Z,10.36
2022-10-12T17:51:03.783Z,10.36
2022-10-12T17:55:05.518Z,10.35
2022-10-12T17:59:07.024Z,10.43
2022-10-12T18:03:08.429Z,10.34
2022-10-12T18:07:10.918Z,10.42
2022-10-12T18:11:12.495Z,10.40
2022-10-12T18:15:13.899Z,10.33
2022-10-12T18:19:15.309Z,10.25
2022-10-12T18:23:16.709Z,10.26
2022-10-12T18:27:18.258Z,10.20
2022-10-12T18:31:22.722Z,10.11
2022-10-12T18:35:24.234Z,10.06
2022-10-12T18:39:25.630Z,10.03
2022-10-12T18:43:26.970Z,9.99
2022-10-12T18:47:28.353Z,9.87
2022-10-12T18:51:32.104Z,9.83
2022-10-12T18:55:39.273Z,9.84
2022-10-12T18:59:40.678Z,9.63
2022-10-12T19:03:42.437Z,9.55
2022-10-12T19:07:43.907Z,9.36
2022-10-12T19:11:45.325Z,9.59
2022-10-12T19:15:46.746Z,9.45
2022-10-12T19:19:48.165Z,9.37
2022-10-12T19:23:49.638Z,9.49
2022-10-12T19:27:51.420Z,9.52
2022-10-12T19:31:53.888Z,9.40
2022-10-12T19:35:55.527Z,9.28
2022-10-12T19:39:56.912Z,9.33
2022-10-12T19:43:59.232Z,9.33
2022-10-12T19:48:00.676Z,9.28
2022-10-12T19:52:02.138Z,9.20
2022-10-12T19:56:09.528Z,8.83
2022-10-12T20:00:11.579Z,8.93
2022-10-12T20:04:12.972Z,8.77
2022-10-12T20:08:14.411Z,8.90
2022-10-12T20:12:16.218Z,8.66
2022-10-12T20:16:19.761Z,8.76
2022-10-12T20:20:21.970Z,8.62
2022-10-12T20:24:23.490Z,8.40
2022-10-12T20:28:24.995Z,8.59
2022-10-12T20:32:26.471Z,8.53
2022-10-12T20:36:30.232Z,8.14
2022-10-12T20:40:31.611Z,8.45
2022-10-12T20:44:33.007Z,8.38
2022-10-12T20:48:34.660Z,7.95
2022-10-12T20:52:36.577Z,8.22
2022-10-12T20:56:41.109Z,8.08
2022-10-12T21:00:42.534Z,8.47
2022-10-12T21:04:44.482Z,8.66
2022-10-12T21:08:50.195Z,8.50
2022-10-12T21:12:51.577Z,8.27
2022-10-12T21:16:53.087Z,8.20
2022-10-12T21:20:59.331Z,8.12
2022-10-12T21:25:00.907Z,8.31
2022-10-12T21:29:02.506Z,7.92
2022-10-12T21:33:03.869Z,8.14
2022-10-12T21:37:05.247Z,8.06
2022-10-12T21:41:07.784Z,7.93
2022-10-12T21:45:09.473Z,7.84
2022-10-12T21:49:11.426Z,7.92
2022-10-12T21:53:13.724Z,8.18
2022-10-12T21:57:15.158Z,7.62
2022-10-12T22:01:28.379Z,7.45
2022-10-12T22:05:29.854Z,7.37
2022-10-12T22:09:31.219Z,7.51
2022-10-12T22:13:32.681Z,7.38
2022-10-12T22:17:35.309Z,7.55
2022-10-12T22:21:36.901Z,7.55
2022-10-12T22:25:38.246Z,7.43
2022-10-12T22:29:39.778Z,7.36
2022-10-12T22:33:41.376Z,7.44
2022-10-12T22:37:42.796Z,7.56
2022-10-12T22:41:44.266Z,7.63
2022-10-12T22:45:45.647Z,7.20
2022-10-12T22:49:47.079Z,7.25
2022-10-12T22:53:49.218Z,7.18
2022-10-12T22:57:50.612Z,6.98
2022-10-12T23:01:51.989Z,6.82
2022-10-12T23:05:53.412Z,6.91
2022-10-12T23:09:55.092Z,6.81
2022-10-12T23:13:57.912Z,6.48
2022-10-12T23:17:59.728Z,6.71
2022-10-12T23:22:03.215Z,6.73
2022-10-12T23:26:10.653Z,6.22
2022-10-12T23:30:12.068Z,6.30
2022-10-12T23:34:14.886Z,6.52
2022-10-12T23:38:16.259Z,6.28
2022-10-12T23:42:17.846Z,6.10
2022-10-12T23:46:19.427Z,6.17
2022-10-12T23:50:20.795Z,6.20
2022-10-12T23:54:23.367Z,6.21
2022-10-12T23:58:24.794Z,6.02
